createdAt,value
2019-03-30T00:01:11.128Z,12.83
2019-03-30T00:03:41.666Z,12.67
2019-03-30T00:06:12.196Z,12.80
2019-03-30T00:08:42.712Z,14.20
2019-03-30T00:11:13.284Z,13.33
2019-03-30T00:13:43.831Z,13.60
2019-03-30T00:16:14.344Z,15.17
2019-03-30T00:18:44.776Z,12.17
2019-03-30T00:21:15.623Z,14.07
2019-03-30T00:23:46.117Z,14.83
2019-03-30T00:26:16.749Z,14.10
2019-03-30T00:28:47.210Z,14.97
2019-03-30T00:31:17.800Z,14.13
2019-03-30T00:33:48.691Z,12.10
2019-03-30T00:36:19.105Z,12.93
2019-03-30T00:38:49.586Z,13.50
2019-03-30T00:41:20.375Z,13.50
2019-03-30T00:43:50.885Z,12.80
2019-03-30T00:46:21.649Z,13.07
2019-03-30T00:48:52.021Z,13.97
2019-03-30T00:51:22.678Z,12.83
2019-03-30T00:53:53.439Z,12.87
2019-03-30T00:56:24.073Z,12.40
2019-03-30T00:58:54.582Z,12.63
2019-03-30T01:01:25.100Z,13.43
2019-03-30T01:03:56.590Z,12.73
2019-03-30T01:06:27.055Z,13.53
2019-03-30T01:08:57.614Z,11.83
2019-03-30T01:11:28.173Z,13.47
2019-03-30T01:13:58.597Z,12.73
2019-03-30T01:16:29.420Z,12.83
2019-03-30T01:18:59.929Z,12.70
2019-03-30T01:21:30.363Z,13.27
2019-03-30T01:24:00.875Z,12.10
2019-03-30T01:26:31.459Z,12.10
2019-03-30T01:29:01.974Z,12.33
2019-03-30T01:31:32.609Z,12.17
2019-03-30T01:34:03.316Z,11.00
2019-03-30T01:36:33.739Z,12.03
2019-03-30T01:39:05.860Z,11.93
2019-03-30T01:41:36.379Z,13.73
2019-03-30T01:44:07.142Z,12.00
2019-03-30T01:46:37.841Z,12.87
2019-03-30T01:49:08.268Z,13.23
2019-03-30T01:51:38.786Z,13.47
2019-03-30T01:54:09.584Z,12.50
2019-03-30T01:56:39.995Z,13.03
2019-03-30T01:59:10.501Z,13.10
2019-03-30T02:01:40.952Z,12.47
2019-03-30T02:04:11.792Z,11.68
2019-03-30T02:06:42.587Z,12.87
2019-03-30T02:09:13.078Z,12.83
2019-03-30T02:11:43.774Z,12.00
2019-03-30T02:14:14.210Z,13.37
2019-03-30T02:16:44.990Z,11.83
2019-03-30T02:19:15.516Z,12.50
2019-03-30T02:21:46.023Z,12.87
2019-03-30T02:24:16.508Z,12.07
2019-03-30T02:26:47.102Z,12.43
2019-03-30T02:29:18.677Z,12.87
2019-03-30T02:31:49.748Z,13.07
2019-03-30T02:34:20.470Z,12.73
2019-03-30T02:36:51.080Z,12.67
2019-03-30T02:39:21.679Z,12.47
2019-03-30T02:41:52.175Z,12.83
2019-03-30T02:44:22.735Z,12.83
2019-03-30T02:46:53.577Z,12.50
2019-03-30T02:49:24.213Z,12.23
2019-03-30T02:51:54.898Z,12.40
2019-03-30T02:54:25.419Z,13.50
2019-03-30T02:56:56.173Z,12.47
2019-03-30T02:59:26.550Z,13.03
2019-03-30T03:01:57.131Z,13.03
2019-03-30T03:04:27.641Z,12.40
2019-03-30T03:06:58.364Z,12.17
2019-03-30T03:09:28.820Z,12.50
2019-03-30T03:11:59.499Z,12.00
2019-03-30T03:14:29.922Z,11.33
2019-03-30T03:17:00.444Z,11.30
2019-03-30T03:19:31.288Z,12.87
2019-03-30T03:22:01.817Z,11.90
2019-03-30T03:24:32.357Z,12.37
2019-03-30T03:27:02.976Z,11.70
2019-03-30T03:29:33.533Z,12.73
2019-03-30T03:32:04.162Z,12.37
2019-03-30T03:34:34.654Z,12.17
2019-03-30T03:37:05.281Z,12.23
2019-03-30T03:39:35.771Z,12.13
2019-03-30T03:42:06.301Z,11.87
2019-03-30T03:44:36.861Z,11.63
2019-03-30T03:47:07.469Z,12.80
2019-03-30T03:49:38.003Z,12.43
2019-03-30T03:52:08.937Z,12.00
2019-03-30T03:54:39.497Z,11.43
2019-03-30T03:57:12.661Z,12.47
2019-03-30T03:59:43.902Z,11.73
2019-03-30T04:02:16.945Z,11.53
2019-03-30T04:04:48.598Z,12.57
2019-03-30T04:07:20.405Z,10.77
2019-03-30T04:09:52.315Z,12.37
2019-03-30T04:12:24.288Z,12.27
2019-03-30T04:14:55.206Z,10.80
2019-03-30T04:17:25.787Z,11.43
2019-03-30T04:19:56.319Z,11.47
2019-03-30T04:22:26.875Z,12.23
2019-03-30T04:24:57.681Z,12.05
2019-03-30T04:27:28.158Z,12.50
2019-03-30T04:29:58.794Z,11.60
2019-03-30T04:32:29.383Z,11.50
2019-03-30T04:35:00.482Z,10.97
2019-03-30T04:37:30.950Z,10.80
2019-03-30T04:40:01.552Z,10.97
2019-03-30T04:42:32.205Z,11.93
2019-03-30T04:45:02.713Z,12.10
2019-03-30T04:47:33.212Z,11.50
2019-03-30T04:50:03.774Z,11.17
2019-03-30T04:52:34.569Z,11.63
2019-03-30T04:55:05.144Z,11.53
2019-03-30T04:57:35.869Z,12.73
2019-03-30T05:00:07.768Z,12.73
2019-03-30T05:02:38.285Z,12.20
2019-03-30T05:05:09.079Z,12.10
2019-03-30T05:07:39.842Z,12.20
2019-03-30T05:10:10.436Z,12.90
2019-03-30T05:12:40.962Z,11.67
2019-03-30T05:15:11.743Z,11.67
2019-03-30T05:17:47.596Z,12.80
2019-03-30T05:20:14.917Z,12.50
2019-03-30T05:22:45.417Z,13.33
2019-03-30T05:25:15.940Z,11.93
2019-03-30T05:27:46.378Z,12.10
2019-03-30T05:30:17.881Z,13.22
2019-03-30T05:32:48.440Z,11.93
2019-03-30T05:35:18.961Z,12.53
2019-03-30T05:37:49.397Z,13.53
2019-03-30T05:40:19.909Z,13.93
2019-03-30T05:42:50.662Z,12.93
2019-03-30T05:45:21.196Z,12.67
2019-03-30T05:47:51.963Z,13.70
2019-03-30T05:50:22.473Z,13.47
2019-03-30T05:52:53.139Z,13.07
2019-03-30T05:55:23.698Z,12.60
2019-03-30T05:57:54.449Z,12.50
2019-03-30T06:00:25.966Z,12.60
2019-03-30T06:02:56.613Z,13.20
2019-03-30T06:05:27.853Z,13.93
2019-03-30T06:07:58.770Z,13.00
2019-03-30T06:10:29.317Z,15.10
2019-03-30T06:13:00.554Z,15.67
2019-03-30T06:15:31.383Z,12.67
2019-03-30T06:18:02.430Z,13.33
2019-03-30T06:20:33.271Z,12.90
2019-03-30T06:23:04.113Z,12.70
2019-03-30T06:25:34.644Z,12.67
2019-03-30T06:28:05.151Z,11.77
2019-03-30T06:30:35.662Z,14.07
2019-03-30T06:33:06.182Z,12.27
2019-03-30T06:35:36.815Z,12.10
2019-03-30T06:38:07.580Z,12.30
2019-03-30T06:40:38.120Z,12.80
2019-03-30T06:43:09.170Z,13.70
2019-03-30T06:45:39.763Z,12.20
2019-03-30T06:48:10.640Z,13.23
2019-03-30T06:50:41.483Z,12.40
2019-03-30T06:53:12.152Z,12.87
2019-03-30T06:55:42.576Z,12.23
2019-03-30T06:58:13.474Z,12.73
2019-03-30T07:00:45.450Z,12.97
2019-03-30T07:03:16.773Z,12.07
2019-03-30T07:05:47.609Z,12.03
2019-03-30T07:08:18.701Z,12.20
2019-03-30T07:10:49.823Z,13.23
2019-03-30T07:13:20.740Z,12.60
2019-03-30T07:15:51.374Z,12.17
2019-03-30T07:18:21.891Z,12.23
2019-03-30T07:20:52.448Z,12.07
2019-03-30T07:23:22.933Z,11.90
2019-03-30T07:25:54.120Z,12.20
2019-03-30T07:28:24.669Z,12.10
2019-03-30T07:30:55.205Z,12.77
2019-03-30T07:33:26.871Z,11.67
2019-03-30T07:35:57.544Z,11.03
2019-03-30T07:38:28.071Z,13.17
2019-03-30T07:40:58.585Z,12.93
2019-03-30T07:43:29.138Z,11.80
2019-03-30T07:46:00.147Z,11.70
2019-03-30T07:48:30.686Z,12.35
2019-03-30T07:51:01.277Z,12.43
2019-03-30T07:53:43.808Z,12.73
2019-03-30T07:56:08.646Z,9.83
2019-03-30T07:58:38.072Z,11.85
2019-03-30T08:01:08.956Z,12.15
2019-03-30T08:03:39.802Z,12.53
2019-03-30T08:06:10.615Z,11.22
2019-03-30T08:08:41.555Z,11.70
2019-03-30T08:11:14.387Z,12.28
2019-03-30T08:13:44.239Z,12.70
2019-03-30T08:16:14.752Z,12.43
2019-03-30T08:18:45.359Z,12.90
2019-03-30T08:21:16.306Z,13.10
2019-03-30T08:23:46.823Z,13.68
2019-03-30T08:26:17.358Z,13.50
2019-03-30T08:28:47.771Z,11.57
2019-03-30T08:31:18.948Z,13.05
2019-03-30T08:33:49.501Z,13.10
2019-03-30T08:36:20.372Z,13.70
2019-03-30T08:38:50.895Z,13.70
2019-03-30T08:41:21.883Z,13.43
2019-03-30T08:43:52.399Z,12.98
2019-03-30T08:46:22.888Z,12.35
2019-03-30T08:48:53.456Z,12.40
2019-03-30T08:51:24.053Z,11.18
2019-03-30T08:53:55.179Z,10.90
2019-03-30T08:56:27.995Z,10.78
2019-03-30T08:58:58.417Z,10.28
2019-03-30T09:01:28.923Z,10.30
2019-03-30T09:03:59.438Z,10.55
2019-03-30T09:06:29.939Z,11.18
2019-03-30T09:09:00.365Z,10.78
2019-03-30T09:11:30.950Z,9.85
2019-03-30T09:14:01.394Z,11.00
2019-03-30T09:16:32.335Z,10.25
2019-03-30T09:19:02.910Z,9.58
2019-03-30T09:21:34.244Z,10.68
2019-03-30T09:24:09.833Z,10.48
2019-03-30T09:26:36.892Z,10.00
2019-03-30T09:29:07.518Z,9.85
2019-03-30T09:31:38.028Z,8.73
2019-03-30T09:34:09.059Z,10.35
2019-03-30T09:36:40.001Z,9.58
2019-03-30T09:39:11.250Z,9.65
2019-03-30T09:41:41.763Z,10.38
2019-03-30T09:44:12.132Z,9.05
2019-03-30T09:46:43.138Z,10.23
2019-03-30T09:49:14.380Z,10.63
2019-03-30T09:51:44.814Z,11.10
2019-03-30T09:54:23.476Z,9.20
2019-03-30T09:56:47.958Z,10.70
2019-03-30T09:59:18.604Z,10.80
2019-03-30T10:01:49.236Z,9.85
2019-03-30T10:04:19.862Z,10.98
2019-03-30T10:06:51.757Z,9.05
2019-03-30T10:09:22.346Z,10.08
2019-03-30T10:11:52.876Z,9.63
2019-03-30T10:14:23.424Z,10.20
2019-03-30T10:16:53.923Z,10.10
2019-03-30T10:19:27.713Z,9.83
2019-03-30T10:21:56.671Z,9.63
2019-03-30T10:24:37.878Z,10.38
2019-03-30T10:26:59.779Z,8.78
2019-03-30T10:29:31.169Z,9.78
2019-03-30T10:32:01.810Z,9.85
2019-03-30T10:34:32.380Z,8.53
2019-03-30T10:37:03.140Z,7.12
2019-03-30T10:39:34.061Z,6.90
2019-03-30T10:42:04.627Z,7.85
2019-03-30T10:44:35.290Z,8.05
2019-03-30T10:47:05.822Z,7.85
2019-03-30T10:49:36.597Z,8.78
2019-03-30T10:52:07.367Z,7.90
2019-03-30T10:54:51.708Z,7.92
2019-03-30T10:57:10.962Z,7.55
2019-03-30T10:59:41.424Z,7.20
2019-03-30T11:02:12.010Z,7.70
2019-03-30T11:04:42.618Z,7.87
2019-03-30T11:07:13.137Z,8.25
2019-03-30T11:09:43.558Z,8.43
2019-03-30T11:12:14.341Z,8.43
2019-03-30T11:14:45.174Z,5.95
2019-03-30T11:17:19.238Z,7.22
2019-03-30T11:19:48.213Z,7.40
2019-03-30T11:22:18.746Z,8.15
2019-03-30T11:24:49.354Z,6.60
2019-03-30T11:27:19.867Z,8.30
2019-03-30T11:29:50.820Z,8.65
2019-03-30T11:32:21.650Z,7.67
2019-03-30T11:34:52.191Z,7.80
2019-03-30T11:37:22.779Z,8.88
2019-03-30T11:39:53.364Z,8.90
2019-03-30T11:42:23.967Z,7.37
2019-03-30T11:44:54.573Z,8.25
2019-03-30T11:47:25.185Z,8.40
2019-03-30T11:49:55.642Z,9.48
2019-03-30T11:52:26.180Z,9.15
2019-03-30T11:54:56.638Z,8.43
2019-03-30T11:57:27.170Z,9.28
2019-03-30T11:59:58.002Z,9.80
2019-03-30T12:02:28.635Z,9.55
2019-03-30T12:04:59.653Z,10.08
2019-03-30T12:07:30.264Z,9.60
2019-03-30T12:10:00.699Z,10.43
2019-03-30T12:12:31.379Z,9.98
2019-03-30T12:15:01.965Z,9.78
2019-03-30T12:17:32.576Z,8.50
2019-03-30T12:20:03.181Z,8.43
2019-03-30T12:22:33.611Z,7.10
2019-03-30T12:25:04.350Z,9.10
2019-03-30T12:27:34.973Z,8.05
2019-03-30T12:30:05.874Z,8.75
2019-03-30T12:32:36.332Z,8.35
2019-03-30T12:35:07.363Z,8.33
2019-03-30T12:37:37.819Z,10.32
2019-03-30T12:40:08.502Z,10.13
2019-03-30T12:42:39.348Z,7.92
2019-03-30T12:45:09.959Z,5.42
2019-03-30T12:47:40.565Z,6.55
2019-03-30T12:50:11.074Z,6.42
2019-03-30T12:52:41.589Z,5.83
2019-03-30T12:55:12.682Z,4.83
2019-03-30T12:57:43.855Z,6.80
2019-03-30T13:00:14.493Z,6.80
2019-03-30T13:02:46.065Z,6.87
2019-03-30T13:05:16.566Z,6.55
2019-03-30T13:07:47.094Z,7.20
2019-03-30T13:10:17.948Z,7.08
2019-03-30T13:12:48.603Z,6.80
2019-03-30T13:15:19.124Z,7.35
2019-03-30T13:17:49.665Z,6.92
2019-03-30T13:20:20.184Z,7.58
2019-03-30T13:22:50.959Z,1.42
2019-03-30T13:25:21.500Z,7.80
2019-03-30T13:27:53.389Z,7.95
2019-03-30T13:30:25.275Z,8.38
2019-03-30T13:32:55.816Z,8.05
2019-03-30T13:35:26.268Z,8.53
2019-03-30T13:37:56.767Z,8.95
2019-03-30T13:40:27.287Z,9.68
2019-03-30T13:42:57.790Z,10.10
2019-03-30T13:45:28.658Z,8.90
2019-03-30T13:47:59.149Z,9.83
2019-03-30T13:50:31.113Z,10.70
2019-03-30T13:53:02.286Z,9.50
2019-03-30T13:55:32.776Z,8.95
2019-03-30T13:58:04.531Z,10.65
2019-03-30T14:00:35.638Z,10.53
2019-03-30T14:03:06.342Z,8.95
2019-03-30T14:05:37.000Z,9.33
2019-03-30T14:08:07.523Z,8.48
2019-03-30T14:10:39.189Z,8.93
2019-03-30T14:13:09.973Z,9.28
2019-03-30T14:15:40.432Z,9.43
2019-03-30T14:18:10.952Z,9.03
2019-03-30T14:20:41.368Z,8.43
2019-03-30T14:23:12.370Z,7.42
2019-03-30T14:25:42.809Z,7.97
2019-03-30T14:28:13.314Z,8.50
2019-03-30T14:30:43.835Z,7.78
2019-03-30T14:33:14.695Z,8.83
2019-03-30T14:35:45.224Z,9.35
2019-03-30T14:38:15.873Z,10.75
2019-03-30T14:40:46.477Z,8.85
2019-03-30T14:43:17.007Z,10.10
2019-03-30T14:45:47.720Z,8.75
2019-03-30T14:48:18.583Z,8.28
2019-03-30T14:50:49.457Z,9.43
2019-03-30T14:53:20.018Z,10.63
2019-03-30T14:55:50.812Z,10.75
2019-03-30T14:58:21.236Z,11.12
2019-03-30T15:00:51.773Z,11.00
2019-03-30T15:03:22.358Z,12.58
2019-03-30T15:05:52.895Z,11.20
2019-03-30T15:08:23.325Z,10.60
2019-03-30T15:10:53.855Z,11.57
2019-03-30T15:13:25.776Z,11.88
2019-03-30T15:15:56.341Z,11.22
2019-03-30T15:18:26.838Z,12.55
2019-03-30T15:20:57.489Z,11.65
2019-03-30T15:23:28.010Z,11.63
2019-03-30T15:25:58.838Z,11.88
2019-03-30T15:28:29.637Z,12.73
2019-03-30T15:31:00.585Z,11.05
2019-03-30T15:33:32.180Z,11.65
2019-03-30T15:36:02.990Z,12.85
2019-03-30T15:38:33.701Z,13.85
2019-03-30T15:41:04.226Z,13.62
2019-03-30T15:43:38.553Z,13.28
2019-03-30T15:46:07.238Z,9.53
2019-03-30T15:48:37.756Z,10.08
2019-03-30T15:51:08.301Z,9.05
2019-03-30T15:53:39.070Z,8.25
2019-03-30T15:56:09.588Z,9.75
2019-03-30T15:58:40.190Z,9.03
2019-03-30T16:01:11.278Z,8.88
2019-03-30T16:03:43.035Z,9.08
2019-03-30T16:06:13.477Z,9.08
2019-03-30T16:08:44.611Z,9.18
2019-03-30T16:11:15.146Z,9.70
2019-03-30T16:13:45.739Z,10.03
2019-03-30T16:16:16.192Z,10.28
2019-03-30T16:18:46.772Z,10.00
2019-03-30T16:21:17.415Z,11.05
2019-03-30T16:23:47.934Z,9.83
2019-03-30T16:26:18.726Z,9.88
2019-03-30T16:28:49.257Z,9.23
2019-03-30T16:31:19.890Z,10.40
2019-03-30T16:33:50.558Z,10.28
2019-03-30T16:36:21.346Z,9.83
2019-03-30T16:38:51.872Z,10.88
2019-03-30T16:41:22.506Z,10.90
2019-03-30T16:43:53.079Z,10.35
2019-03-30T16:46:23.772Z,10.85
2019-03-30T16:48:54.290Z,10.10
2019-03-30T16:51:25.074Z,9.78
2019-03-30T16:53:55.536Z,10.43
2019-03-30T16:56:26.062Z,10.58
2019-03-30T16:58:56.579Z,10.08
2019-03-30T17:01:27.080Z,9.35
2019-03-30T17:03:57.856Z,9.68
2019-03-30T17:06:28.397Z,9.20
2019-03-30T17:08:58.929Z,9.85
2019-03-30T17:11:29.437Z,10.35
2019-03-30T17:13:59.976Z,9.78
2019-03-30T17:16:30.486Z,10.32
2019-03-30T17:19:00.982Z,9.55
2019-03-30T17:21:31.528Z,10.50
2019-03-30T17:24:02.036Z,9.13
2019-03-30T17:26:32.585Z,10.28
2019-03-30T17:29:03.072Z,9.90
2019-03-30T17:31:34.078Z,9.78
2019-03-30T17:34:05.331Z,9.85
2019-03-30T17:36:35.900Z,10.48
2019-03-30T17:39:10.280Z,10.30
2019-03-30T17:41:40.723Z,10.10
2019-03-30T17:44:11.610Z,10.23
2019-03-30T17:46:42.277Z,10.95
2019-03-30T17:49:13.062Z,11.15
2019-03-30T17:51:43.618Z,12.13
2019-03-30T17:54:15.280Z,11.10
2019-03-30T17:56:45.803Z,12.07
2019-03-30T17:59:16.435Z,12.15
2019-03-30T18:01:47.118Z,12.65
2019-03-30T18:04:17.659Z,13.85
2019-03-30T18:06:48.193Z,13.72
2019-03-30T18:09:18.785Z,12.58
2019-03-30T18:11:49.630Z,11.93
2019-03-30T18:14:20.145Z,12.03
2019-03-30T18:16:50.670Z,11.45
2019-03-30T18:19:21.941Z,11.90
2019-03-30T18:21:52.457Z,11.43
2019-03-30T18:24:23.016Z,12.18
2019-03-30T18:26:53.545Z,12.07
2019-03-30T18:29:24.489Z,11.22
2019-03-30T18:31:55.025Z,12.28
2019-03-30T18:34:26.084Z,13.08
2019-03-30T18:36:57.050Z,11.43
2019-03-30T18:39:27.605Z,13.50
2019-03-30T18:41:58.051Z,12.15
2019-03-30T18:44:28.622Z,12.73
2019-03-30T18:46:59.055Z,12.85
2019-03-30T18:49:29.688Z,13.65
2019-03-30T18:52:01.132Z,13.62
2019-03-30T18:54:31.762Z,13.32
2019-03-30T18:57:02.754Z,12.63
2019-03-30T18:59:33.316Z,13.08
2019-03-30T19:02:03.814Z,12.90
2019-03-30T19:04:34.584Z,12.85
2019-03-30T19:07:05.384Z,13.72
2019-03-30T19:09:35.961Z,13.15
2019-03-30T19:12:06.540Z,12.55
2019-03-30T19:14:37.042Z,12.37
2019-03-30T19:17:07.663Z,14.00
2019-03-30T19:19:38.186Z,13.95
2019-03-30T19:22:08.875Z,12.80
2019-03-30T19:24:39.374Z,12.50
2019-03-30T19:27:09.846Z,12.73
2019-03-30T19:29:40.430Z,12.03
2019-03-30T19:32:11.223Z,12.47
2019-03-30T19:34:41.693Z,12.25
2019-03-30T19:37:13.184Z,13.08
2019-03-30T19:39:43.734Z,13.18
2019-03-30T19:42:15.980Z,12.40
2019-03-30T19:44:48.116Z,13.13
2019-03-30T19:47:18.977Z,13.83
2019-03-30T19:49:49.753Z,13.13
2019-03-30T19:52:20.514Z,14.15
2019-03-30T19:54:51.123Z,14.00
2019-03-30T19:57:21.477Z,13.58
2019-03-30T19:59:51.998Z,13.65
2019-03-30T20:02:22.448Z,14.13
2019-03-30T20:04:53.874Z,14.33
2019-03-30T20:07:24.811Z,15.30
2019-03-30T20:09:55.362Z,14.33
2019-03-30T20:12:25.863Z,15.68
2019-03-30T20:14:56.515Z,16.35
2019-03-30T20:17:27.421Z,16.82
2019-03-30T20:19:57.969Z,16.23
2019-03-30T20:22:28.498Z,18.05
2019-03-30T20:24:59.121Z,17.40
2019-03-30T20:27:30.027Z,17.37
2019-03-30T20:30:00.562Z,17.07
2019-03-30T20:32:31.144Z,16.75
2019-03-30T20:35:01.774Z,16.37
2019-03-30T20:37:32.430Z,15.78
2019-03-30T20:40:02.950Z,15.60
2019-03-30T20:42:34.542Z,14.47
2019-03-30T20:45:06.845Z,14.87
2019-03-30T20:47:38.650Z,15.27
2019-03-30T20:50:09.628Z,14.55
2019-03-30T20:52:40.197Z,15.08
2019-03-30T20:55:10.849Z,15.23
2019-03-30T20:57:41.442Z,15.43
2019-03-30T21:00:12.170Z,14.05
2019-03-30T21:02:43.063Z,15.70
2019-03-30T21:05:14.108Z,15.85
2019-03-30T21:07:44.622Z,16.48
2019-03-30T21:10:15.387Z,16.70
2019-03-30T21:12:45.976Z,17.62
2019-03-30T21:15:16.580Z,18.62
2019-03-30T21:17:47.069Z,18.37
2019-03-30T21:20:18.129Z,19.45
2019-03-30T21:22:48.700Z,20.17
2019-03-30T21:25:19.623Z,20.43
2019-03-30T21:27:50.597Z,21.97
2019-03-30T21:30:22.044Z,22.73
2019-03-30T21:32:53.312Z,22.35
2019-03-30T21:35:24.263Z,22.20
2019-03-30T21:37:58.322Z,23.05
2019-03-30T21:40:27.432Z,21.82
2019-03-30T21:42:58.412Z,24.10
2019-03-30T21:45:29.229Z,23.22
2019-03-30T21:47:59.778Z,21.73
2019-03-30T21:50:30.601Z,20.48
2019-03-30T21:53:01.446Z,22.32
2019-03-30T21:55:31.959Z,22.25
2019-03-30T21:58:02.438Z,22.98
2019-03-30T22:00:37.194Z,22.05
2019-03-30T22:03:08.080Z,20.43
2019-03-30T22:05:40.259Z,21.93
2019-03-30T22:08:10.807Z,22.60
2019-03-30T22:10:41.372Z,31.50
2019-03-30T22:13:11.975Z,23.70
2019-03-30T22:15:42.424Z,23.05
2019-03-30T22:18:12.984Z,22.32
2019-03-30T22:20:44.211Z,24.65
2019-03-30T22:23:15.047Z,24.18
2019-03-30T22:25:45.575Z,24.00
2019-03-30T22:28:16.191Z,25.08
2019-03-30T22:30:46.642Z,26.20
2019-03-30T22:33:18.558Z,25.82
2019-03-30T22:35:49.110Z,26.00
2019-03-30T22:38:19.706Z,25.95
2019-03-30T22:40:51.648Z,26.65
2019-03-30T22:43:22.170Z,27.17
2019-03-30T22:45:52.741Z,27.65
2019-03-30T22:48:23.315Z,28.10
2019-03-30T22:50:54.206Z,28.50
2019-03-30T22:53:24.830Z,27.50
2019-03-30T22:55:55.373Z,29.25
2019-03-30T22:58:25.826Z,28.27
2019-03-30T23:01:08.902Z,28.95
2019-03-30T23:03:41.119Z,31.70
2019-03-30T23:06:11.638Z,32.25
2019-03-30T23:08:42.305Z,29.27
2019-03-30T23:11:12.811Z,30.57
2019-03-30T23:13:43.323Z,29.45
2019-03-30T23:16:14.211Z,31.00
2019-03-30T23:18:45.443Z,32.17
2019-03-30T23:21:16.180Z,31.27
2019-03-30T23:23:46.738Z,32.35
2019-03-30T23:26:17.194Z,32.30
2019-03-30T23:28:47.768Z,32.93
2019-03-30T23:31:18.245Z,32.88
2019-03-30T23:33:48.650Z,31.87
2019-03-30T23:36:19.197Z,32.25
2019-03-30T23:38:49.689Z,31.87
2019-03-30T23:41:20.643Z,32.30
2019-03-30T23:43:51.188Z,31.70
2019-03-30T23:46:21.775Z,31.00
2019-03-30T23:48:52.314Z,32.77
2019-03-30T23:51:22.962Z,30.90
2019-03-30T23:53:53.870Z,32.87
2019-03-30T23:56:26.187Z,31.70
2019-03-30T23:58:57.128Z,32.13
